createdAt,value
2018-07-28T00:01:07.171Z,71.00
2018-07-28T00:03:41.677Z,71.20
2018-07-28T00:06:16.057Z,72.00
2018-07-28T00:08:50.769Z,71.70
2018-07-28T00:11:25.878Z,72.00
2018-07-28T00:14:00.809Z,72.10
2018-07-28T00:16:35.395Z,72.20
2018-07-28T00:19:11.397Z,72.50
2018-07-28T00:21:46.528Z,72.80
2018-07-28T00:24:21.111Z,73.00
2018-07-28T00:26:56.263Z,73.30
2018-07-28T00:29:30.934Z,73.70
2018-07-28T00:32:05.798Z,73.80
2018-07-28T00:34:40.504Z,74.10
2018-07-28T00:37:15.025Z,74.30
2018-07-28T00:39:49.947Z,74.60
2018-07-28T00:42:25.472Z,74.90
2018-07-28T00:45:00.286Z,75.30
2018-07-28T00:47:35.742Z,75.40
2018-07-28T00:50:11.702Z,75.70
2018-07-28T00:52:47.124Z,76.10
2018-07-28T00:55:22.751Z,76.10
2018-07-28T00:57:57.528Z,76.30
2018-07-28T01:00:32.558Z,76.80
2018-07-28T01:03:07.547Z,76.90
2018-07-28T01:05:42.373Z,77.00
2018-07-28T01:08:18.619Z,77.60
2018-07-28T01:10:53.536Z,77.90
2018-07-28T01:13:28.025Z,78.20
2018-07-28T01:16:02.653Z,78.40
2018-07-28T01:18:37.563Z,78.90
2018-07-28T01:21:13.018Z,78.90
2018-07-28T01:23:47.890Z,79.20
2018-07-28T01:26:22.794Z,79.50
2018-07-28T01:29:01.745Z,80.20
2018-07-28T01:31:37.103Z,80.60
2018-07-28T01:34:11.891Z,80.90
2018-07-28T01:36:46.383Z,81.00
2018-07-28T01:39:21.379Z,81.30
2018-07-28T01:41:56.621Z,81.40
2018-07-28T01:44:31.640Z,82.00
2018-07-28T01:47:06.245Z,82.00
2018-07-28T01:49:40.801Z,82.20
2018-07-28T01:52:15.358Z,81.90
2018-07-28T01:54:50.569Z,82.50
2018-07-28T01:57:25.390Z,82.80
2018-07-28T01:59:59.990Z,83.10
2018-07-28T02:02:34.594Z,83.10
2018-07-28T02:05:11.028Z,83.40
2018-07-28T02:07:46.196Z,83.90
2018-07-28T02:10:21.262Z,84.30
2018-07-28T02:12:55.516Z,84.60
2018-07-28T02:15:30.069Z,85.00
2018-07-28T02:18:05.277Z,85.10
2018-07-28T02:20:40.158Z,85.10
2018-07-28T02:23:15.142Z,85.40
2018-07-28T02:25:50.448Z,86.30
2018-07-28T02:28:25.319Z,85.60
2018-07-28T02:31:00.586Z,85.70
2018-07-28T02:33:37.255Z,86.20
2018-07-28T02:36:12.853Z,86.70
2018-07-28T02:38:48.452Z,86.60
2018-07-28T02:41:24.141Z,87.10
2018-07-28T02:44:00.615Z,87.60
2018-07-28T02:46:35.243Z,87.20
2018-07-28T02:49:12.698Z,87.70
2018-07-28T02:51:50.383Z,87.90
2018-07-28T02:54:28.444Z,88.00
2018-07-28T02:57:03.783Z,88.10
2018-07-28T02:59:42.353Z,88.10
2018-07-28T03:02:17.865Z,88.30
2018-07-28T03:04:54.508Z,88.50
2018-07-28T03:07:31.962Z,88.90
2018-07-28T03:10:06.741Z,89.10
2018-07-28T03:12:42.731Z,89.40
2018-07-28T03:15:32.573Z,88.70
2018-07-28T03:18:09.149Z,89.50
2018-07-28T03:20:43.741Z,89.30
2018-07-28T03:23:18.325Z,89.10
2018-07-28T03:25:52.932Z,89.70
2018-07-28T03:28:27.760Z,89.90
2018-07-28T03:31:03.056Z,89.90
2018-07-28T03:33:37.878Z,90.00
2018-07-28T03:36:12.823Z,90.10
2018-07-28T03:38:47.721Z,90.20
2018-07-28T03:41:22.347Z,90.30
2018-07-28T03:43:56.564Z,90.40
2018-07-28T03:46:31.519Z,90.30
2018-07-28T03:49:06.396Z,90.60
2018-07-28T03:51:41.404Z,90.60
2018-07-28T03:54:15.952Z,90.50
2018-07-28T03:56:50.380Z,90.80
2018-07-28T03:59:25.944Z,90.70
2018-07-28T04:02:00.546Z,90.60
2018-07-28T04:04:35.933Z,90.70
2018-07-28T04:07:10.901Z,91.00
2018-07-28T04:09:46.125Z,91.20
2018-07-28T04:12:20.684Z,91.10
2018-07-28T04:14:55.137Z,91.20
2018-07-28T04:17:29.655Z,91.20
2018-07-28T04:20:04.977Z,91.40
2018-07-28T04:22:40.374Z,91.40
2018-07-28T04:25:15.013Z,92.00
2018-07-28T04:27:50.192Z,91.40
2018-07-28T04:30:24.455Z,91.40
2018-07-28T04:32:59.945Z,91.50
2018-07-28T04:35:34.669Z,91.60
2018-07-28T04:38:10.667Z,91.70
2018-07-28T04:40:45.619Z,91.60
2018-07-28T04:43:21.741Z,91.70
2018-07-28T04:45:56.495Z,91.70
2018-07-28T04:48:31.071Z,91.70
2018-07-28T04:51:05.951Z,91.60
2018-07-28T04:53:40.475Z,91.70
2018-07-28T04:56:15.338Z,91.40
2018-07-28T04:58:50.317Z,91.70
2018-07-28T05:01:24.974Z,91.60
2018-07-28T05:03:59.908Z,91.60
2018-07-28T05:06:34.189Z,91.80
2018-07-28T05:09:12.304Z,92.20
2018-07-28T05:11:47.036Z,92.00
2018-07-28T05:14:22.885Z,91.70
2018-07-28T05:16:57.439Z,92.00
2018-07-28T05:19:31.827Z,92.00
2018-07-28T05:22:07.139Z,91.80
2018-07-28T05:24:41.902Z,92.00
2018-07-28T05:27:16.895Z,91.70
2018-07-28T05:29:51.409Z,92.00
2018-07-28T05:32:26.099Z,92.00
2018-07-28T05:35:00.700Z,91.50
2018-07-28T05:37:35.614Z,91.50
2018-07-28T05:40:10.311Z,91.50
2018-07-28T05:42:44.779Z,91.50
2018-07-28T05:45:19.122Z,91.70
2018-07-28T05:47:53.761Z,91.40
2018-07-28T05:50:28.093Z,91.60
2018-07-28T05:53:02.537Z,91.30
2018-07-28T05:55:37.184Z,91.10
2018-07-28T05:58:11.850Z,90.80
2018-07-28T06:00:46.540Z,90.70
2018-07-28T06:03:21.468Z,90.80
2018-07-28T06:05:55.942Z,90.50
2018-07-28T06:08:30.760Z,90.50
2018-07-28T06:11:05.303Z,90.40
2018-07-28T06:13:40.097Z,90.30
2018-07-28T06:16:14.494Z,90.20
2018-07-28T06:18:49.005Z,90.20
2018-07-28T06:21:23.714Z,90.00
2018-07-28T06:23:58.266Z,89.00
2018-07-28T06:26:32.789Z,88.90
2018-07-28T06:29:07.138Z,88.70
2018-07-28T06:31:41.988Z,88.10
2018-07-28T06:34:16.711Z,88.20
2018-07-28T06:36:51.088Z,88.10
2018-07-28T06:39:25.437Z,87.70
2018-07-28T06:41:59.918Z,86.60
2018-07-28T06:44:34.670Z,85.50
2018-07-28T06:47:09.079Z,86.00
2018-07-28T06:49:43.384Z,85.50
2018-07-28T06:52:18.908Z,84.40
2018-07-28T06:54:53.189Z,83.20
2018-07-28T06:57:27.741Z,83.20
2018-07-28T07:00:06.221Z,82.50
2018-07-28T07:02:41.039Z,81.70
2018-07-28T07:05:16.059Z,81.10
2018-07-28T07:07:50.332Z,80.80
2018-07-28T07:10:24.938Z,81.10
2018-07-28T07:12:59.759Z,81.20
2018-07-28T07:15:34.356Z,80.60
2018-07-28T07:18:09.016Z,80.60
2018-07-28T07:20:44.253Z,81.30
2018-07-28T07:23:18.650Z,80.80
2018-07-28T07:25:52.958Z,80.20
2018-07-28T07:28:27.682Z,79.60
2018-07-28T07:31:02.051Z,78.60
2018-07-28T07:33:36.378Z,78.60
2018-07-28T07:36:10.775Z,77.90
2018-07-28T07:38:45.225Z,77.70
2018-07-28T07:41:19.549Z,77.60
2018-07-28T07:43:54.162Z,77.40
2018-07-28T07:46:28.569Z,77.00
2018-07-28T07:49:03.649Z,76.90
2018-07-28T07:51:39.007Z,76.40
2018-07-28T07:54:13.687Z,77.00
2018-07-28T07:56:48.448Z,76.50
2018-07-28T07:59:23.273Z,76.60
2018-07-28T08:01:57.615Z,76.00
2018-07-28T08:04:32.292Z,75.10
2018-07-28T08:09:40.552Z,74.70
2018-07-28T08:12:15.744Z,74.50
2018-07-28T08:14:50.016Z,74.50
2018-07-28T08:17:25.192Z,74.00
2018-07-28T08:20:00.306Z,73.30
2018-07-28T08:25:09.461Z,72.80
2018-07-28T08:27:43.946Z,71.90
2018-07-28T08:30:18.731Z,71.10
2018-07-28T08:32:54.123Z,70.40
2018-07-28T08:35:28.396Z,68.80
2018-07-28T08:40:37.868Z,67.20
2018-07-28T08:43:13.187Z,65.70
2018-07-28T08:45:48.281Z,65.20
2018-07-28T08:48:24.645Z,64.40
2018-07-28T08:50:59.341Z,64.50
2018-07-28T08:53:34.906Z,64.30
2018-07-28T08:56:09.470Z,64.50
2018-07-28T08:58:45.006Z,63.50
2018-07-28T09:01:20.755Z,63.20
2018-07-28T09:03:57.499Z,63.00
2018-07-28T09:06:32.369Z,62.70
2018-07-28T09:09:09.935Z,62.20
2018-07-28T09:11:44.298Z,62.50
2018-07-28T09:14:19.809Z,62.60
2018-07-28T09:16:55.122Z,63.70
2018-07-28T09:19:30.887Z,62.80
2018-07-28T09:22:05.794Z,61.10
2018-07-28T09:24:59.695Z,60.00
2018-07-28T09:27:52.412Z,59.90
2018-07-28T09:30:28.283Z,60.30
2018-07-28T09:33:03.179Z,59.70
2018-07-28T09:35:37.614Z,59.00
2018-07-28T09:38:22.480Z,57.10
2018-07-28T09:41:13.920Z,57.30
2018-07-28T09:43:54.097Z,57.60
2018-07-28T09:46:35.535Z,57.10
2018-07-28T09:49:32.052Z,56.40
2018-07-28T09:52:25.931Z,55.90
2018-07-28T09:55:04.035Z,56.20
2018-07-28T09:57:38.672Z,55.60
2018-07-28T10:00:18.991Z,55.40
2018-07-28T10:02:54.657Z,55.10
2018-07-28T10:05:29.499Z,55.50
2018-07-28T10:08:07.494Z,55.00
2018-07-28T10:10:42.597Z,55.10
2018-07-28T10:13:17.497Z,54.00
2018-07-28T10:15:51.956Z,53.60
2018-07-28T10:18:32.706Z,53.60
2018-07-28T10:21:52.945Z,52.80
2018-07-28T10:24:30.725Z,53.00
2018-07-28T10:27:05.633Z,52.20
2018-07-28T10:29:40.209Z,51.90
2018-07-28T10:32:14.751Z,52.60
2018-07-28T10:34:49.104Z,52.60
2018-07-28T10:37:23.473Z,52.70
2018-07-28T10:39:58.327Z,51.80
2018-07-28T10:42:32.522Z,52.20
2018-07-28T10:45:07.928Z,52.30
2018-07-28T10:47:42.850Z,51.90
2018-07-28T10:50:17.858Z,51.10
2018-07-28T10:52:52.683Z,51.30
2018-07-28T10:55:26.990Z,51.70
2018-07-28T10:58:01.524Z,50.20
2018-07-28T11:00:36.080Z,50.70
2018-07-28T11:03:10.309Z,51.10
2018-07-28T11:05:44.905Z,50.60
2018-07-28T11:08:19.645Z,49.70
2018-07-28T11:10:53.979Z,49.70
2018-07-28T11:13:28.427Z,50.10
2018-07-28T11:16:03.416Z,50.80
2018-07-28T11:18:38.382Z,50.00
2018-07-28T11:21:12.926Z,48.10
2018-07-28T11:24:00.890Z,48.60
2018-07-28T11:26:40.167Z,49.10
2018-07-28T11:29:14.687Z,48.20
2018-07-28T11:32:13.262Z,48.40
2018-07-28T11:35:08.996Z,47.50
2018-07-28T11:38:22.436Z,46.70
2018-07-28T11:41:17.866Z,46.50
2018-07-28T11:44:13.780Z,47.70
2018-07-28T11:46:52.382Z,45.90
2018-07-28T11:49:29.269Z,45.60
2018-07-28T11:52:03.575Z,45.70
2018-07-28T11:54:38.046Z,45.30
2018-07-28T11:57:14.240Z,45.30
2018-07-28T11:59:49.819Z,44.80
2018-07-28T12:02:24.299Z,44.70
2018-07-28T12:04:58.692Z,44.90
2018-07-28T12:07:33.612Z,44.80
2018-07-28T12:10:10.408Z,43.90
2018-07-28T12:12:44.638Z,44.10
2018-07-28T12:15:19.109Z,44.40
2018-07-28T12:17:56.597Z,44.20
2018-07-28T12:20:31.037Z,43.90
2018-07-28T12:23:05.817Z,44.10
2018-07-28T12:25:40.159Z,43.20
2018-07-28T12:28:14.980Z,43.40
2018-07-28T12:30:49.168Z,43.50
2018-07-28T12:33:24.285Z,42.80
2018-07-28T12:36:00.971Z,43.10
2018-07-28T12:38:39.839Z,43.30
2018-07-28T12:41:14.462Z,42.50
2018-07-28T12:43:49.342Z,41.80
2018-07-28T12:46:25.800Z,40.80
2018-07-28T12:49:01.801Z,40.30
2018-07-28T12:51:36.110Z,40.40
2018-07-28T12:54:11.149Z,40.00
2018-07-28T12:56:46.867Z,40.00
2018-07-28T12:59:21.320Z,39.50
2018-07-28T13:01:57.166Z,38.90
2018-07-28T13:04:31.392Z,38.10
2018-07-28T13:07:07.698Z,39.00
2018-07-28T13:09:42.236Z,40.00
2018-07-28T13:12:16.590Z,38.90
2018-07-28T13:14:55.861Z,38.20
2018-07-28T13:17:32.458Z,38.90
2018-07-28T13:20:07.597Z,38.50
2018-07-28T13:22:50.544Z,39.00
2018-07-28T13:25:28.361Z,39.40
2018-07-28T13:28:03.414Z,39.80
2018-07-28T13:30:38.533Z,41.20
2018-07-28T13:33:13.555Z,41.30
2018-07-28T13:35:49.410Z,41.20
2018-07-28T13:38:24.130Z,42.40
2018-07-28T13:40:58.853Z,42.90
2018-07-28T13:43:33.220Z,43.90
2018-07-28T13:46:13.468Z,46.30
2018-07-28T13:48:48.589Z,49.50
2018-07-28T13:51:24.504Z,54.80
2018-07-28T13:53:59.179Z,57.50
2018-07-28T13:56:34.711Z,58.50
2018-07-28T13:59:09.393Z,59.70
2018-07-28T14:01:43.692Z,60.30
2018-07-28T14:09:25.533Z,67.20
2018-07-28T14:12:02.039Z,70.60
2018-07-28T14:14:36.312Z,75.50
2018-07-28T14:17:11.936Z,80.30
2018-07-28T14:19:46.620Z,91.40
2018-07-28T14:22:21.866Z,99.90
2018-07-28T14:24:56.299Z,99.90
2018-07-28T14:27:30.432Z,99.90
2018-07-28T14:30:04.973Z,99.90
2018-07-28T14:35:13.207Z,99.90
2018-07-28T14:37:47.468Z,99.90
2018-07-28T14:40:21.834Z,99.90
2018-07-28T14:42:56.037Z,99.90
2018-07-28T14:45:30.549Z,99.90
2018-07-28T14:48:04.823Z,99.90
2018-07-28T14:50:38.768Z,99.90
2018-07-28T14:53:12.673Z,99.90
2018-07-28T14:55:47.117Z,99.90
2018-07-28T15:00:54.397Z,99.90
2018-07-28T15:03:28.973Z,99.90
2018-07-28T15:06:03.189Z,99.90
2018-07-28T15:08:37.914Z,99.90
2018-07-28T15:11:12.263Z,99.90
2018-07-28T15:13:48.158Z,99.90
2018-07-28T15:16:22.802Z,99.90
2018-07-28T15:18:56.935Z,99.90
2018-07-28T15:21:38.858Z,99.90
2018-07-28T15:24:21.418Z,99.90
2018-07-28T15:26:55.548Z,99.90
2018-07-28T15:29:29.803Z,99.90
2018-07-28T15:32:04.034Z,99.90
2018-07-28T15:34:38.739Z,99.90
2018-07-28T15:37:12.861Z,99.90
2018-07-28T15:39:47.222Z,99.90
2018-07-28T15:42:22.935Z,99.90
2018-07-28T15:44:56.860Z,99.90
2018-07-28T15:47:31.578Z,99.90
2018-07-28T15:50:06.024Z,99.90
2018-07-28T15:52:41.472Z,99.90
2018-07-28T15:55:16.184Z,99.90
2018-07-28T15:57:51.170Z,99.90
2018-07-28T16:00:25.132Z,99.90
2018-07-28T16:03:09.789Z,99.90
2018-07-28T16:05:44.805Z,99.90
2018-07-28T16:08:20.116Z,99.90
2018-07-28T16:10:56.304Z,99.90
2018-07-28T16:13:30.882Z,99.90
2018-07-28T16:16:05.065Z,99.90
2018-07-28T16:21:12.289Z,99.90
2018-07-28T16:23:46.329Z,99.90
2018-07-28T16:26:20.847Z,99.90
2018-07-28T16:28:54.909Z,99.90
2018-07-28T16:31:28.954Z,99.90
2018-07-28T16:34:02.921Z,99.90
2018-07-28T16:36:36.984Z,99.90
2018-07-28T16:39:12.757Z,99.90
2018-07-28T16:41:53.262Z,99.90
2018-07-28T16:44:32.408Z,99.90
2018-07-28T16:47:47.977Z,99.90
2018-07-28T16:50:25.012Z,99.90
2018-07-28T16:52:58.933Z,99.90
2018-07-28T16:55:33.270Z,99.90
2018-07-28T16:58:07.596Z,99.90
2018-07-28T17:00:41.838Z,99.90
2018-07-28T17:03:16.124Z,99.90
2018-07-28T17:05:50.936Z,99.90
2018-07-28T17:08:24.879Z,99.90
2018-07-28T17:10:59.490Z,99.90
2018-07-28T17:13:34.400Z,99.90
2018-07-28T17:16:08.438Z,99.90
2018-07-28T17:18:42.762Z,99.90
2018-07-28T17:21:17.188Z,99.90
2018-07-28T17:23:53.715Z,99.90
2018-07-28T17:26:28.256Z,99.90
2018-07-28T17:29:05.597Z,99.90
2018-07-28T17:31:47.954Z,99.90
2018-07-28T17:34:22.054Z,99.30
2018-07-28T17:36:56.061Z,99.00
2018-07-28T17:39:30.359Z,99.80
2018-07-28T17:42:04.866Z,98.60
2018-07-28T17:44:39.096Z,98.30
2018-07-28T17:47:13.601Z,97.90
2018-07-28T17:49:47.524Z,98.00
2018-07-28T17:52:21.625Z,99.30
2018-07-28T17:54:56.080Z,99.40
2018-07-28T17:57:30.741Z,99.90
2018-07-28T18:00:05.243Z,99.90
2018-07-28T18:02:40.070Z,99.90
2018-07-28T18:05:14.502Z,99.90
2018-07-28T18:07:48.867Z,99.90
2018-07-28T18:10:22.816Z,99.90
2018-07-28T18:12:56.796Z,99.90
2018-07-28T18:15:30.725Z,99.90
2018-07-28T18:18:05.142Z,99.90
2018-07-28T18:20:39.490Z,99.90
2018-07-28T18:25:47.413Z,99.90
2018-07-28T18:28:21.745Z,99.70
2018-07-28T18:30:55.692Z,99.90
2018-07-28T18:33:29.679Z,99.90
2018-07-28T18:36:04.124Z,99.90
2018-07-28T18:38:38.182Z,99.90
2018-07-28T18:41:13.442Z,99.90
2018-07-28T18:43:47.497Z,99.90
2018-07-28T18:46:21.496Z,99.90
2018-07-28T18:48:55.738Z,99.90
2018-07-28T18:51:29.777Z,99.90
2018-07-28T18:54:03.758Z,99.90
2018-07-28T18:56:37.986Z,99.90
2018-07-28T18:59:12.820Z,99.90
2018-07-28T19:01:46.861Z,99.90
2018-07-28T19:04:20.903Z,99.90
2018-07-28T19:06:54.840Z,99.90
2018-07-28T19:09:34.001Z,99.90
2018-07-28T19:12:08.353Z,99.90
2018-07-28T19:14:42.656Z,99.90
2018-07-28T19:17:16.657Z,99.90
2018-07-28T19:19:50.677Z,99.90
2018-07-28T19:22:29.676Z,99.90
2018-07-28T19:25:03.876Z,99.90
2018-07-28T19:27:38.160Z,99.90
2018-07-28T19:30:12.185Z,99.90
2018-07-28T19:32:47.242Z,99.90
2018-07-28T19:35:21.156Z,99.90
2018-07-28T19:37:57.210Z,99.90
2018-07-28T19:40:31.445Z,99.90
2018-07-28T19:43:07.172Z,99.90
2018-07-28T19:45:41.273Z,99.90
2018-07-28T19:48:16.264Z,99.90
2018-07-28T19:50:53.134Z,99.90
2018-07-28T19:53:27.300Z,99.90
2018-07-28T19:56:02.237Z,99.90
2018-07-28T19:58:36.331Z,99.90
2018-07-28T20:01:10.375Z,99.90
2018-07-28T20:03:44.368Z,99.90
2018-07-28T20:06:18.334Z,99.90
2018-07-28T20:08:54.210Z,99.90
2018-07-28T20:11:28.219Z,99.90
2018-07-28T20:14:02.323Z,99.90
2018-07-28T20:16:36.879Z,99.90
2018-07-28T20:19:11.583Z,99.90
2018-07-28T20:21:46.055Z,99.90
2018-07-28T20:24:20.111Z,99.90
2018-07-28T20:26:54.524Z,99.90
2018-07-28T20:29:28.550Z,99.90
2018-07-28T20:32:02.565Z,99.90
2018-07-28T20:34:36.693Z,99.90
2018-07-28T20:37:10.735Z,99.90
2018-07-28T20:39:44.722Z,99.90
2018-07-28T20:42:18.723Z,99.90
2018-07-28T20:44:54.372Z,99.90
2018-07-28T20:47:28.915Z,99.90
2018-07-28T20:50:03.445Z,99.90
2018-07-28T20:52:38.878Z,99.90
2018-07-28T20:55:13.212Z,98.30
2018-07-28T20:57:47.243Z,99.60
2018-07-28T21:00:26.450Z,98.80
2018-07-28T21:03:01.817Z,98.70
2018-07-28T21:05:35.977Z,98.00
2018-07-28T21:08:10.565Z,98.20
2018-07-28T21:10:45.084Z,98.40
2018-07-28T21:13:19.572Z,98.30
2018-07-28T21:15:54.985Z,98.50
2018-07-28T21:18:32.733Z,98.50
2018-07-28T21:21:12.363Z,99.90
2018-07-28T21:24:03.875Z,99.90
2018-07-28T21:26:39.468Z,99.90
2018-07-28T21:29:13.498Z,99.90
2018-07-28T21:31:48.516Z,99.90
2018-07-28T21:34:22.553Z,99.90
2018-07-28T21:36:56.911Z,99.90
2018-07-28T21:39:31.005Z,99.90
2018-07-28T21:42:05.280Z,99.90
2018-07-28T21:44:39.405Z,99.90
2018-07-28T21:47:14.820Z,99.90
2018-07-28T21:49:49.765Z,99.90
2018-07-28T21:52:24.018Z,99.90
2018-07-28T21:54:58.005Z,99.90
2018-07-28T21:57:32.005Z,99.90
2018-07-28T22:00:07.732Z,99.90
2018-07-28T22:02:42.366Z,99.90
2018-07-28T22:05:16.571Z,99.90
2018-07-28T22:07:52.545Z,99.90
2018-07-28T22:10:31.869Z,99.90
2018-07-28T22:13:09.229Z,99.90
2018-07-28T22:16:28.116Z,99.90
2018-07-28T22:19:54.474Z,99.90
2018-07-28T22:23:24.576Z,99.90
2018-07-28T22:26:46.171Z,99.90
2018-07-28T22:29:55.703Z,99.90
2018-07-28T22:32:31.332Z,99.90
2018-07-28T22:35:05.762Z,99.90
2018-07-28T22:37:39.873Z,99.90
2018-07-28T22:40:14.494Z,99.90
2018-07-28T22:42:52.214Z,99.90
2018-07-28T22:45:26.901Z,99.90
2018-07-28T22:48:02.393Z,99.90
2018-07-28T22:50:36.988Z,99.90
2018-07-28T22:53:13.518Z,99.90
2018-07-28T22:55:47.970Z,99.90
2018-07-28T22:58:26.357Z,99.90
2018-07-28T23:01:04.521Z,99.90
2018-07-28T23:03:45.353Z,99.90
2018-07-28T23:09:04.983Z,99.90
2018-07-28T23:11:45.741Z,99.90
2018-07-28T23:14:25.330Z,99.90
2018-07-28T23:19:42.103Z,99.90
2018-07-28T23:22:26.028Z,99.90
2018-07-28T23:25:33.509Z,99.90
2018-07-28T23:28:52.277Z,99.90
2018-07-28T23:35:39.448Z,99.90
2018-07-28T23:38:22.038Z,99.90
2018-07-28T23:41:23.185Z,99.90
2018-07-28T23:43:57.395Z,99.90
2018-07-28T23:46:31.917Z,99.90
2018-07-28T23:49:05.860Z,99.90
2018-07-28T23:51:40.239Z,99.90
2018-07-28T23:54:14.149Z,99.90
2018-07-28T23:56:48.417Z,99.90
